Time;durP1;ratioP1;P1;durP2;ratioP2;P2;SDS_P1;SDS_P2;PMS_P1;PMS_P2;Temp;Humidity;BMP_temperature;BMP_pressure;BME280_temperature;BME280_humidity;BME280_pressure;Samples;Min_cycle;Max_cycle;Signal;HPM_P1;HPM_P2
2022/08/31 00:04:43;;;;;;;15.20;10.25;;;;;;;22.41;100.00;100407.22;5016879;28;20030;-92
2022/08/31 00:07:09;;;;;;;15.82;11.60;;;;;;;22.34;100.00;100406.56;5017495;28;20041;-91
2022/08/31 00:09:35;;;;;;;16.70;12.95;;;;;;;22.23;100.00;100402.84;4999936;28;20065;-93
2022/08/31 00:12:01;;;;;;;14.77;11.73;;;;;;;22.34;100.00;100399.25;5017322;28;20208;-93
2022/08/31 00:14:27;;;;;;;19.55;12.65;;;;;;;22.36;100.00;100388.22;5017743;28;20038;-92
2022/08/31 00:16:53;;;;;;;22.45;13.98;;;;;;;22.37;100.00;100379.06;5019301;28;20057;-92
2022/08/31 00:19:25;;;;;;;18.33;12.70;;;;;;;22.31;100.00;100377.31;5002501;28;20456;-92
2022/08/31 00:21:51;;;;;;;19.20;13.85;;;;;;;22.51;100.00;100380.38;5018920;28;20060;-92
2022/08/31 00:24:23;;;;;;;;;;;;;;;22.70;100.00;100379.16;5005010;28;20068;-93
2022/08/31 00:26:48;;;;;;;15.93;12.85;;;;;;;22.55;100.00;100378.84;5019480;28;19917;-91
2022/08/31 00:29:14;;;;;;;24.77;13.60;;;;;;;22.38;100.00;100376.13;5003947;28;20113;-92
2022/08/31 00:31:43;;;;;;;21.30;14.25;;;;;;;22.28;100.00;100372.41;5025117;28;20036;-92
2022/08/31 00:34:09;;;;;;;17.98;14.10;;;;;;;22.05;100.00;100376.84;5028476;28;20074;-93
2022/08/31 00:36:35;;;;;;;20.42;14.60;;;;;;;21.96;100.00;100374.78;4971263;28;20030;-91
2022/08/31 00:39:02;;;;;;;19.38;12.73;;;;;;;21.96;100.00;100381.00;5017719;28;20461;-92
2022/08/31 00:41:29;;;;;;;14.05;11.15;;;;;;;22.02;100.00;100380.03;5016029;28;20049;-93
2022/08/31 00:44:03;;;;;;;17.40;12.18;;;;;;;21.88;100.00;100375.94;4999354;28;20030;-93
2022/08/31 00:46:35;;;;;;;16.13;11.70;;;;;;;21.85;100.00;100375.59;5016607;28;20034;-92
2022/08/31 00:49:27;;;;;;;16.80;12.15;;;;;;;21.87;100.00;100379.72;5000179;28;20068;-92
2022/08/31 00:52:07;;;;;;;19.90;11.25;;;;;;;21.81;100.00;100375.25;4994484;28;20038;-91
2022/08/31 00:54:38;;;;;;;14.68;10.43;;;;;;;21.85;100.00;100365.63;5023196;28;20034;-92
2022/08/31 00:57:06;;;;;;;12.20;9.95;;;;;;;21.80;100.00;100370.09;5021690;28;20125;-91
2022/08/31 00:59:32;;;;;;;13.57;9.45;;;;;;;21.93;100.00;100373.38;5006311;28;20107;-92
2022/08/31 01:01:58;;;;;;;14.80;9.77;;;;;;;22.02;100.00;100368.41;5005361;28;20038;-92
2022/08/31 01:04:24;;;;;;;11.77;8.77;;;;;;;22.06;100.00;100372.28;4988807;28;20042;-92
2022/08/31 01:06:53;;;;;;;13.93;8.98;;;;;;;22.14;100.00;100369.19;5017531;28;20094;-93
2022/08/31 01:09:22;;;;;;;18.77;10.00;;;;;;;22.12;100.00;100380.22;5021284;28;20090;-93
2022/08/31 01:11:48;;;;;;;12.07;9.45;;;;;;;22.09;100.00;100369.09;5021230;28;20049;-93
2022/08/31 01:14:14;;;;;;;15.23;10.35;;;;;;;22.17;100.00;100373.31;5021066;28;20046;-92
2022/08/31 01:16:44;;;;;;;12.40;9.23;;;;;;;21.95;100.00;100365.84;5021612;28;20026;-92
2022/08/31 01:19:27;;;;;;;13.52;9.55;;;;;;;21.78;100.00;100361.41;5021516;28;20040;-90
2022/08/31 01:22:22;;;;;;;14.48;8.60;;;;;;;21.88;100.00;100348.13;5037870;28;20034;-91
2022/08/31 01:24:49;;;;;;;12.25;10.00;;;;;;;21.90;100.00;100349.59;5013392;28;20054;-91
2022/08/31 01:27:21;;;;;;;12.23;9.52;;;;;;;21.92;100.00;100354.72;5007991;28;20022;-92
2022/08/31 01:29:46;;;;;;;12.93;9.55;;;;;;;21.81;100.00;100347.47;4997780;28;20044;-90
2022/08/31 01:32:15;;;;;;;16.48;9.40;;;;;;;21.80;100.00;100351.22;5006487;28;20023;-92
2022/08/31 01:34:41;;;;;;;13.43;9.10;;;;;;;21.69;100.00;100350.19;5002591;28;20038;-90
2022/08/31 01:37:07;;;;;;;11.98;9.85;;;;;;;21.48;100.00;100358.91;5016730;28;20436;-92
2022/08/31 01:39:33;;;;;;;17.92;9.25;;;;;;;21.49;100.00;100360.56;5015971;28;20034;-92
2022/08/31 01:41:58;;;;;;;16.00;9.85;;;;;;;21.59;100.00;100355.38;5015315;28;20120;-92
2022/08/31 01:44:28;;;;;;;12.23;10.63;;;;;;;21.65;100.00;100351.72;4997377;28;20038;-91
2022/08/31 01:46:55;;;;;;;18.70;12.00;;;;;;;21.52;100.00;100355.50;4998022;28;20052;-91
2022/08/31 01:49:24;;;;;;;19.23;12.13;;;;;;;21.40;100.00;100348.50;5016746;28;20037;-91
2022/08/31 01:51:51;;;;;;;15.98;11.75;;;;;;;21.49;100.00;100353.28;5011959;28;20021;-93
2022/08/31 01:54:19;;;;;;;17.58;12.00;;;;;;;21.52;100.00;100349.28;5003014;28;20128;-92
2022/08/31 01:56:46;;;;;;;16.35;11.77;;;;;;;21.52;100.00;100343.91;5001275;28;20392;-96
2022/08/31 01:59:22;;;;;;;16.42;11.85;;;;;;;21.54;100.00;100348.00;5015893;28;20030;-94
2022/08/31 02:02:04;;;;;;;21.23;10.60;;;;;;;21.61;100.00;100355.94;4999288;28;20084;-91
2022/08/31 02:04:33;;;;;;;17.60;11.20;;;;;;;21.62;100.00;100349.50;5014590;28;20030;-93
2022/08/31 02:07:00;;;;;;;21.00;11.55;;;;;;;21.55;100.00;100338.84;4998707;28;20074;-91
2022/08/31 02:09:28;;;;;;;22.67;12.45;;;;;;;21.58;100.00;100343.75;5014352;28;20053;-93
2022/08/31 02:11:57;;;;;;;22.65;11.57;;;;;;;21.58;100.00;100346.47;5014805;28;20068;-94
2022/08/31 02:14:23;;;;;;;20.90;12.93;;;;;;;21.60;100.00;100351.63;5015733;28;20034;-91
2022/08/31 02:16:48;;;;;;;16.73;12.25;;;;;;;21.60;100.00;100355.16;4985101;28;20034;-90
2022/08/31 02:19:15;;;;;;;17.17;11.95;;;;;;;21.55;100.00;100356.91;5015925;28;20084;-91
2022/08/31 02:21:40;;;;;;;17.85;12.20;;;;;;;21.62;100.00;100360.28;5014087;28;20060;-93
2022/08/31 02:24:07;;;;;;;16.95;12.80;;;;;;;21.75;100.00;100362.72;5014361;28;20034;-91
2022/08/31 02:26:33;;;;;;;16.52;12.07;;;;;;;21.88;100.00;100358.94;5015867;28;20037;-90
2022/08/31 02:28:59;;;;;;;20.30;12.07;;;;;;;21.93;100.00;100351.81;5014218;28;20392;-91
2022/08/31 02:31:24;;;;;;;14.27;11.82;;;;;;;21.85;100.00;100354.84;5014780;28;20108;-92
2022/08/31 02:33:56;;;;;;;16.15;11.95;;;;;;;21.73;100.00;100343.28;5015139;28;20038;-91
2022/08/31 02:36:23;;;;;;;15.48;12.20;;;;;;;21.62;100.00;100344.09;5015183;28;20057;-92
2022/08/31 02:38:49;;;;;;;16.77;11.85;;;;;;;21.73;100.00;100335.19;5014050;28;20038;-92
2022/08/31 02:41:16;;;;;;;16.08;12.18;;;;;;;21.58;100.00;100337.53;5014693;28;20447;-91
2022/08/31 02:43:42;;;;;;;17.17;12.10;;;;;;;21.51;100.00;100334.19;5014586;28;20030;-91
2022/08/31 02:46:09;;;;;;;18.42;11.80;;;;;;;21.45;100.00;100337.81;4997715;28;20052;-90
2022/08/31 02:48:40;;;;;;;19.67;12.98;;;;;;;21.43;100.00;100339.94;4997390;28;20037;-91
2022/08/31 02:51:09;;;;;;;18.52;12.93;;;;;;;21.42;100.00;100343.69;4997965;28;20057;-93
2022/08/31 02:53:37;;;;;;;22.35;13.13;;;;;;;21.47;100.00;100336.53;4997295;28;20481;-90
2022/08/31 02:56:04;;;;;;;18.55;12.43;;;;;;;21.49;100.00;100349.78;5014778;28;20036;-89
2022/08/31 02:58:31;;;;;;;20.13;13.02;;;;;;;21.35;100.00;100348.38;5013715;28;20404;-90
2022/08/31 03:00:58;;;;;;;18.65;13.10;;;;;;;21.27;100.00;100351.44;5015397;28;20026;-89
2022/08/31 03:03:23;;;;;;;18.95;12.77;;;;;;;21.28;100.00;100355.78;4996670;28;20514;-91
2022/08/31 03:05:49;;;;;;;17.33;12.77;;;;;;;21.29;100.00;100362.81;5016952;28;20035;-91
2022/08/31 03:08:15;;;;;;;17.08;12.07;;;;;;;21.34;100.00;100362.94;5003331;28;20042;-91
2022/08/31 03:10:42;;;;;;;21.42;12.60;;;;;;;21.39;100.00;100360.34;5011110;28;20062;-89
2022/08/31 03:13:07;;;;;;;19.17;12.73;;;;;;;21.44;100.00;100368.53;5025603;28;20107;-90
2022/08/31 03:15:33;;;;;;;14.23;10.40;;;;;;;21.60;100.00;100367.81;5000939;28;20034;-88
2022/08/31 03:18:01;;;;;;;17.20;11.23;;;;;;;21.62;100.00;100371.06;5000509;28;20069;-91
2022/08/31 03:20:27;;;;;;;18.13;11.90;;;;;;;21.44;100.00;100379.34;5006405;28;20037;-89
2022/08/31 03:22:53;;;;;;;18.70;11.75;;;;;;;21.34;100.00;100379.09;5018206;28;20041;-90
2022/08/31 03:25:19;;;;;;;17.83;11.70;;;;;;;21.27;100.00;100368.44;5017478;28;20174;-91
2022/08/31 03:27:45;;;;;;;16.65;11.57;;;;;;;21.25;100.00;100375.09;5017378;28;20042;-90
2022/08/31 03:30:14;;;;;;;16.20;11.35;;;;;;;21.20;100.00;100366.91;5000407;28;20038;-90
2022/08/31 03:32:44;;;;;;;19.58;11.63;;;;;;;21.20;100.00;100372.31;5016370;28;20473;-89
2022/08/31 03:35:10;;;;;;;19.35;11.02;;;;;;;21.21;100.00;100363.19;5000124;28;20118;-89
2022/08/31 03:37:36;;;;;;;14.82;11.55;;;;;;;21.24;100.00;100368.91;5016480;28;20504;-92
2022/08/31 03:40:03;;;;;;;14.60;10.55;;;;;;;21.23;100.00;100361.88;5002041;28;20040;-88
2022/08/31 03:42:30;;;;;;;11.65;9.82;;;;;;;21.24;100.00;100362.72;5008614;28;20088;-89
2022/08/31 03:44:55;;;;;;;17.23;11.07;;;;;;;21.26;100.00;100357.88;5010241;28;20042;-91
2022/08/31 03:47:26;;;;;;;17.67;10.68;;;;;;;21.35;100.00;100353.75;5005523;28;20034;-91
2022/08/31 03:49:52;;;;;;;15.93;10.95;;;;;;;21.42;100.00;100354.47;5000707;28;20033;-91
2022/08/31 03:52:23;;;;;;;18.80;10.48;;;;;;;21.46;100.00;100364.56;5000586;28;20092;-91
2022/08/31 03:54:59;;;;;;;13.35;10.27;;;;;;;21.44;100.00;100363.16;5016173;28;20037;-92
2022/08/31 03:57:25;;;;;;;20.42;10.30;;;;;;;21.48;100.00;100365.13;4951222;28;20042;-90
2022/08/31 03:59:54;;;;;;;16.67;10.68;;;;;;;21.41;100.00;100358.25;4999512;28;20114;-90
2022/08/31 04:02:20;;;;;;;17.98;11.52;;;;;;;21.38;100.00;100366.78;5017142;28;20068;-90
2022/08/31 04:05:07;;;;;;;17.73;10.48;;;;;;;21.39;100.00;100360.34;5019766;28;20049;-90
2022/08/31 04:07:41;;;;;;;13.18;10.95;;;;;;;21.37;100.00;100365.97;5017466;28;20042;-90
2022/08/31 04:10:25;;;;;;;14.50;10.07;;;;;;;21.41;100.00;100363.63;5016177;28;20045;-90
2022/08/31 04:13:17;;;;;;;13.52;9.90;;;;;;;21.36;100.00;100372.41;5009162;28;20034;-90
2022/08/31 04:16:19;;;;;;;14.15;10.30;;;;;;;21.38;100.00;100366.78;4983838;28;20053;-91
2022/08/31 04:19:04;;;;;;;19.95;11.50;;;;;;;21.32;100.00;100373.09;5017841;28;20097;-90
2022/08/31 04:21:33;;;;;;;25.15;11.35;;;;;;;21.24;100.00;100368.09;5000370;28;20065;-91
2022/08/31 04:24:00;;;;;;;17.83;12.15;;;;;;;21.08;100.00;100364.19;5017421;28;20045;-92
2022/08/31 04:26:33;;;;;;;16.83;11.77;;;;;;;21.00;100.00;100362.69;5017930;28;20058;-90
2022/08/31 04:29:01;;;;;;;20.00;11.60;;;;;;;20.97;100.00;100363.16;5018217;28;20056;-91
2022/08/31 04:31:27;;;;;;;17.23;11.82;;;;;;;20.88;100.00;100359.13;5027755;28;20038;-90
2022/08/31 04:33:55;;;;;;;16.23;11.93;;;;;;;20.83;100.00;100363.59;5016416;28;20036;-91
2022/08/31 04:36:32;;;;;;;20.23;13.05;;;;;;;20.69;100.00;100365.69;5016738;28;20045;-92
2022/08/31 04:39:00;;;;;;;19.85;11.95;;;;;;;20.73;100.00;100364.16;5037302;28;20030;-87
2022/08/31 04:41:27;;;;;;;19.55;13.52;;;;;;;20.71;100.00;100368.97;5015670;28;20048;-90
2022/08/31 04:43:58;;;;;;;17.20;13.55;;;;;;;20.66;100.00;100368.00;5015284;28;20084;-91
2022/08/31 04:46:26;;;;;;;20.50;13.70;;;;;;;20.69;100.00;100375.63;4999019;28;20125;-89
2022/08/31 04:48:54;;;;;;;22.17;13.93;;;;;;;20.75;100.00;100367.44;5015035;28;20066;-88
2022/08/31 04:51:22;;;;;;;18.45;13.80;;;;;;;20.77;100.00;100373.44;5015765;28;20080;-91
2022/08/31 04:53:49;;;;;;;20.20;13.65;;;;;;;20.82;100.00;100378.94;5016093;28;20053;-89
2022/08/31 04:56:19;;;;;;;23.58;13.32;;;;;;;20.80;100.00;100364.06;5016033;28;20061;-90
2022/08/31 04:58:47;;;;;;;21.38;13.40;;;;;;;20.77;100.00;100365.34;4998985;28;20334;-92
2022/08/31 05:01:20;;;;;;;17.08;11.98;;;;;;;20.79;100.00;100357.03;5015785;28;20384;-90
2022/08/31 05:03:56;;;;;;;16.70;12.18;;;;;;;20.84;100.00;100357.16;5012397;28;20112;-90
2022/08/31 05:06:25;;;;;;;17.70;12.20;;;;;;;20.95;100.00;100364.41;5019410;28;20046;-90
2022/08/31 05:08:56;;;;;;;17.60;12.00;;;;;;;21.00;100.00;100367.25;5015768;28;20104;-90
2022/08/31 05:11:25;;;;;;;15.50;10.73;;;;;;;20.95;100.00;100370.63;5028125;28;20113;-91
2022/08/31 05:13:51;;;;;;;14.68;10.73;;;;;;;20.89;100.00;100366.16;5021448;28;20041;-91
2022/08/31 05:16:18;;;;;;;13.75;9.50;;;;;;;20.83;100.00;100364.41;4999224;28;20037;-86
2022/08/31 05:18:46;;;;;;;15.13;9.35;;;;;;;20.66;100.00;100365.31;5014084;28;20116;-91
2022/08/31 05:21:41;;;;;;;13.23;8.82;;;;;;;20.68;100.00;100369.44;5009765;28;20499;-91
2022/08/31 05:24:19;;;;;;;11.70;9.20;;;;;;;20.62;100.00;100379.25;5017324;28;20520;-90
2022/08/31 05:26:47;;;;;;;12.38;8.95;;;;;;;20.66;100.00;100376.91;5012013;28;20104;-90
2022/08/31 05:29:17;;;;;;;10.57;8.40;;;;;;;20.69;100.00;100387.22;5023870;28;20488;-91
2022/08/31 05:31:43;;;;;;;12.90;8.93;;;;;;;20.70;100.00;100388.03;4983840;28;20117;-88
2022/08/31 05:34:11;;;;;;;12.80;8.30;;;;;;;20.69;100.00;100392.59;5015999;28;20351;-90
2022/08/31 05:36:42;;;;;;;12.85;8.40;;;;;;;20.70;100.00;100391.56;5001863;28;20034;-88
2022/08/31 05:39:10;;;;;;;12.88;8.63;;;;;;;20.71;100.00;100390.53;5022746;28;20017;-88
2022/08/31 05:41:41;;;;;;;14.80;8.77;;;;;;;20.74;100.00;100397.31;5037533;28;20033;-87
2022/08/31 05:44:08;;;;;;;14.75;8.73;;;;;;;20.77;100.00;100399.53;5021224;28;20033;-90
2022/08/31 05:46:35;;;;;;;12.80;9.32;;;;;;;20.74;100.00;100400.84;5019044;28;20047;-89
2022/08/31 05:49:04;;;;;;;17.98;9.35;;;;;;;20.72;100.00;100396.69;5047535;23;20025;-89
2022/08/31 05:51:30;;;;;;;13.43;9.68;;;;;;;20.86;100.00;100395.44;5037662;28;20034;-91
2022/08/31 05:53:58;;;;;;;13.85;9.30;;;;;;;20.90;100.00;100394.75;5027070;28;20038;-90
2022/08/31 05:56:24;;;;;;;16.27;9.20;;;;;;;20.97;100.00;100395.47;5018793;28;20034;-88
2022/08/31 05:58:53;;;;;;;13.80;8.82;;;;;;;21.28;100.00;100390.84;5014716;28;20054;-86
2022/08/31 06:01:31;;;;;;;15.25;9.02;;;;;;;21.84;100.00;100387.47;5013774;28;20153;-89
2022/08/31 06:04:21;;;;;;;15.10;11.40;;;;;;;22.61;100.00;100391.38;5013450;28;20049;-88
2022/08/31 06:06:47;;;;;;;15.20;10.30;;;;;;;23.08;100.00;100403.56;5014627;28;20102;-89
2022/08/31 06:09:15;;;;;;;14.65;10.43;;;;;;;23.81;100.00;100402.44;5013770;28;20452;-89
2022/08/31 06:11:42;;;;;;;17.70;11.45;;;;;;;23.46;100.00;100402.81;4998583;28;20396;-90
2022/08/31 06:14:12;;;;;;;20.88;11.63;;;;;;;23.83;100.00;100405.72;5012631;28;20042;-89
2022/08/31 06:16:42;;;;;;;15.90;12.00;;;;;;;24.03;100.00;100405.97;5012649;28;20117;-88
2022/08/31 06:19:08;;;;;;;18.83;12.15;;;;;;;24.32;100.00;100403.88;5012371;28;20054;-89
2022/08/31 06:21:41;;;;;;;16.55;11.75;;;;;;;24.85;100.00;100397.66;5009005;28;20384;-88
2022/08/31 06:24:09;;;;;;;15.00;11.40;;;;;;;24.77;100.00;100398.06;5009052;28;20068;-87
2022/08/31 06:26:37;;;;;;;15.27;11.23;;;;;;;25.03;100.00;100409.97;4992879;28;20543;-87
2022/08/31 06:29:08;;;;;;;15.23;11.45;;;;;;;24.85;100.00;100415.81;4993387;28;20035;-89
2022/08/31 06:31:45;;;;;;;16.48;12.50;;;;;;;24.61;100.00;100407.97;4994054;28;20026;-89
2022/08/31 06:34:14;;;;;;;23.70;12.65;;;;;;;24.87;100.00;100411.75;4994948;28;20038;-90
2022/08/31 06:36:59;;;;;;;14.98;12.02;;;;;;;25.00;100.00;100424.88;4996250;28;20049;-85
2022/08/31 06:39:39;;;;;;;17.25;12.02;;;;;;;24.76;100.00;100428.16;4999812;28;20054;-91
2022/08/31 06:42:24;;;;;;;16.52;11.60;;;;;;;24.65;100.00;100425.38;5016604;23;20041;-89
2022/08/31 06:45:04;;;;;;;18.35;11.45;;;;;;;24.54;100.00;100426.31;5040705;28;20046;-90
2022/08/31 06:47:57;;;;;;;15.70;11.80;;;;;;;24.86;100.00;100431.78;5021797;28;20045;-91
2022/08/31 06:50:25;;;;;;;15.65;12.02;;;;;;;24.82;100.00;100425.28;5033327;28;20361;-90
2022/08/31 06:52:54;;;;;;;13.75;11.18;;;;;;;24.75;100.00;100430.06;5027102;28;20025;-89
2022/08/31 06:55:30;;;;;;;15.75;12.70;;;;;;;23.96;100.00;100428.91;5025219;28;20109;-90
2022/08/31 06:58:14;;;;;;;15.60;12.82;;;;;;;23.73;100.00;100429.94;5045567;28;20132;-88
2022/08/31 07:01:08;;;;;;;20.50;14.43;;;;;;;23.21;100.00;100429.44;5028398;28;20055;-87
2022/08/31 07:04:02;;;;;;;21.85;15.80;;;;;;;23.02;100.00;100420.75;5041488;28;20120;-91
2022/08/31 07:06:31;;;;;;;26.63;17.67;;;;;;;22.83;100.00;100419.38;5034478;28;20042;-91
2022/08/31 07:09:17;;;;;;;22.15;17.88;;;;;;;22.61;100.00;100408.41;5022215;28;20025;-90
2022/08/31 07:11:48;;;;;;;22.88;19.02;;;;;;;22.49;100.00;100410.38;5056883;28;20046;-89
2022/08/31 07:14:21;;;;;;;23.98;17.58;;;;;;;22.99;100.00;100415.84;5030871;28;20086;-92
2022/08/31 07:16:47;;;;;;;22.50;16.85;;;;;;;23.35;100.00;100410.97;5028395;28;20029;-90
2022/08/31 07:19:13;;;;;;;25.67;17.45;;;;;;;23.64;100.00;100418.72;5044687;28;20092;-90
2022/08/31 07:21:45;;;;;;;25.60;16.48;;;;;;;24.60;100.00;100413.63;5028086;28;20522;-90
2022/08/31 07:24:16;;;;;;;25.77;16.08;;;;;;;24.61;100.00;100418.00;5007424;28;20041;-92
2022/08/31 07:26:48;;;;;;;28.83;16.42;;;;;;;24.94;100.00;100416.97;5031598;28;20051;-90
2022/08/31 07:29:20;;;;;;;17.13;14.68;;;;;;;25.37;100.00;100421.34;5040190;28;20028;-88
2022/08/31 07:31:47;;;;;;;20.55;15.70;;;;;;;25.18;100.00;100416.34;5024942;28;20044;-89
2022/08/31 07:34:24;;;;;;;22.48;16.58;;;;;;;25.23;100.00;100431.00;5027209;28;20431;-90
2022/08/31 07:42:43;;;;;;;16.55;14.10;;;;;;;25.82;100.00;100431.69;5045365;28;20049;-92
2022/08/31 07:45:20;;;;;;;19.77;14.90;;;;;;;25.57;100.00;100437.78;5027408;28;20140;-89
2022/08/31 07:47:48;;;;;;;17.92;13.82;;;;;;;25.15;100.00;100441.28;5045618;28;20037;-92
2022/08/31 07:50:16;;;;;;;18.00;13.38;;;;;;;24.62;100.00;100435.91;5028377;28;20033;-90
2022/08/31 07:53:10;;;;;;;19.70;13.80;;;;;;;24.62;100.00;100441.31;5022454;28;20068;-90
2022/08/31 07:55:46;;;;;;;20.35;14.57;;;;;;;24.34;100.00;100444.25;4989055;28;20045;-91
2022/08/31 07:58:34;;;;;;;19.95;14.02;;;;;;;24.38;100.00;100448.09;5013483;28;20057;-90
2022/08/31 08:01:01;;;;;;;20.33;13.85;;;;;;;24.43;100.00;100453.56;5038854;28;20534;-92
2022/08/31 08:03:34;;;;;;;19.38;13.50;;;;;;;24.45;100.00;100454.13;5029897;28;20037;-90
2022/08/31 08:06:20;;;;;;;20.42;13.60;;;;;;;24.45;100.00;100456.84;5035413;28;20107;-93
2022/08/31 08:09:08;;;;;;;17.67;14.27;;;;;;;24.68;100.00;100446.53;5029014;28;20053;-93
2022/08/31 08:11:57;;;;;;;18.65;12.57;;;;;;;25.61;100.00;100444.31;5043729;28;20051;-90
2022/08/31 08:14:57;;;;;;;19.45;13.60;;;;;;;26.68;100.00;100449.91;4985034;28;20038;-92
2022/08/31 08:17:50;;;;;;;19.42;12.57;;;;;;;26.24;100.00;100448.72;5025237;28;20033;-90
2022/08/31 08:20:22;;;;;;;15.65;12.40;;;;;;;25.88;100.00;100455.88;5015581;28;20587;-88
2022/08/31 08:22:48;;;;;;;14.23;11.43;;;;;;;25.78;100.00;100461.25;5037313;28;20064;-88
2022/08/31 08:25:33;;;;;;;18.55;13.18;;;;;;;25.77;100.00;100465.06;5024621;28;20026;-90
2022/08/31 08:28:06;;;;;;;17.10;13.75;;;;;;;25.96;100.00;100463.50;5019819;28;20038;-92
2022/08/31 08:30:35;;;;;;;16.58;13.43;;;;;;;25.84;100.00;100470.25;5017703;28;20053;-89
2022/08/31 08:33:03;;;;;;;18.88;13.30;;;;;;;25.50;100.00;100475.19;5031196;28;20465;-87
2022/08/31 08:35:31;;;;;;;17.48;12.73;;;;;;;25.46;100.00;100474.03;5023344;28;20034;-87
2022/08/31 08:37:57;;;;;;;23.90;12.93;;;;;;;25.43;100.00;100466.41;5027740;28;20598;-87
2022/08/31 08:40:38;;;;;;;19.85;14.20;;;;;;;25.51;100.00;100460.56;5006956;28;20099;-86
2022/08/31 08:43:04;;;;;;;16.33;12.65;;;;;;;25.58;100.00;100455.72;5041246;28;20038;-87
2022/08/31 08:45:34;;;;;;;15.88;13.88;;;;;;;25.36;100.00;100457.69;5008564;28;20057;-86
2022/08/31 08:48:08;;;;;;;21.40;13.63;;;;;;;25.12;100.00;100466.19;5019001;28;20318;-88
2022/08/31 08:50:38;;;;;;;19.90;15.18;;;;;;;25.48;100.00;100466.47;5040901;28;20056;-88
2022/08/31 08:53:11;;;;;;;22.27;15.55;;;;;;;25.51;100.00;100472.22;5022199;28;20120;-87
2022/08/31 08:55:42;;;;;;;20.35;15.10;;;;;;;25.78;100.00;100482.16;5031182;28;20033;-90
2022/08/31 08:58:14;;;;;;;23.92;16.00;;;;;;;25.39;100.00;100474.25;5035582;28;20033;-87
2022/08/31 09:00:53;;;;;;;20.58;14.60;;;;;;;25.38;100.00;100480.78;5003129;28;20060;-90
2022/08/31 09:03:33;;;;;;;20.38;15.75;;;;;;;24.97;100.00;100473.38;5040975;28;20034;-90
2022/08/31 09:06:45;;;;;;;23.98;16.48;;;;;;;24.61;100.00;100469.47;5027398;28;20192;-90
2022/08/31 09:09:26;;;;;;;22.67;16.00;;;;;;;24.74;100.00;100465.53;5017680;28;20034;-89
2022/08/31 09:12:26;;;;;;;21.80;16.52;;;;;;;24.62;100.00;100460.28;5013614;28;20034;-89
2022/08/31 09:15:14;;;;;;;21.85;16.05;;;;;;;24.89;100.00;100458.38;5038680;28;20039;-92
2022/08/31 09:18:10;;;;;;;26.60;15.93;;;;;;;25.04;100.00;100455.84;5024877;28;20057;-90
2022/08/31 09:20:36;;;;;;;22.73;16.05;;;;;;;25.18;100.00;100446.19;5009413;28;20091;-89
2022/08/31 09:23:07;;;;;;;19.00;15.57;;;;;;;25.78;100.00;100442.25;5037417;28;20603;-89
2022/08/31 09:25:46;;;;;;;19.20;14.15;;;;;;;26.13;100.00;100428.81;5019783;28;20034;-89
2022/08/31 09:28:37;;;;;;;20.73;14.45;;;;;;;26.87;100.00;100431.22;5003444;28;20522;-92
2022/08/31 09:31:04;;;;;;;17.52;13.38;;;;;;;27.22;100.00;100433.09;5033747;28;20036;-89
2022/08/31 09:33:33;;;;;;;19.85;13.02;;;;;;;27.12;100.00;100427.66;5027957;28;20162;-89
2022/08/31 09:36:17;;;;;;;16.67;13.60;;;;;;;27.00;99.82;100419.78;5030470;28;20040;-89
2022/08/31 09:38:45;;;;;;;24.42;13.13;;;;;;;27.40;96.80;100413.47;5034368;28;20117;-90
2022/08/31 09:41:49;;;;;;;17.48;14.63;;;;;;;27.76;95.98;100422.38;5024618;28;20143;-93
2022/08/31 09:44:37;;;;;;;17.48;13.15;;;;;;;28.37;91.73;100416.69;5049424;28;20067;-90
2022/08/31 09:47:41;;;;;;;16.25;12.23;;;;;;;29.28;84.69;100416.00;5047205;28;20125;-89
2022/08/31 09:50:22;;;;;;;17.15;12.85;;;;;;;29.45;84.28;100422.66;5047268;28;20050;-90
2022/08/31 09:55:33;;;;;;;16.73;13.23;;;;;;;29.36;85.26;100407.19;5031691;28;20041;-91
2022/08/31 09:58:03;;;;;;;16.75;13.07;;;;;;;28.88;87.92;100407.06;5035760;28;20492;-91
2022/08/31 10:00:42;;;;;;;15.30;12.43;;;;;;;28.84;85.81;100402.44;5053534;28;20060;-89
2022/08/31 10:03:19;;;;;;;13.80;11.75;;;;;;;28.83;86.21;100398.94;5036789;28;20033;-86
2022/08/31 10:05:47;;;;;;;14.40;12.15;;;;;;;28.81;87.03;100401.13;5047627;28;20075;-86
2022/08/31 10:08:45;;;;;;;14.85;11.80;;;;;;;28.13;92.05;100401.00;5054102;28;20021;-89
2022/08/31 10:11:20;;;;;;;16.48;14.07;;;;;;;28.80;88.97;100395.97;5048663;28;20034;-90
2022/08/31 10:14:02;;;;;;;16.85;13.15;;;;;;;28.91;86.92;100395.56;5055397;28;20389;-87
2022/08/31 10:16:43;;;;;;;18.92;11.98;;;;;;;29.56;85.83;100401.53;5052897;28;20061;-85
2022/08/31 10:19:19;;;;;;;20.52;12.25;;;;;;;29.45;85.76;100389.06;5116946;22;20057;-85
2022/08/31 10:21:50;;;;;;;18.48;13.45;;;;;;;30.21;80.01;100381.56;5036991;28;20353;-84
2022/08/31 10:24:36;;;;;;;17.35;13.63;;;;;;;30.12;79.72;100382.53;5039639;28;20065;-83
2022/08/31 10:27:05;;;;;;;18.45;11.70;;;;;;;29.79;81.80;100373.38;5037309;28;20048;-83
2022/08/31 10:29:39;;;;;;;16.10;11.20;;;;;;;29.69;84.18;100362.56;5037320;28;20034;-90
2022/08/31 10:32:34;;;;;;;13.52;11.45;;;;;;;30.08;83.41;100367.81;5032742;28;20216;-86
2022/08/31 10:35:13;;;;;;;16.17;11.73;;;;;;;29.96;81.51;100367.44;4994274;28;20029;-86
2022/08/31 10:38:08;;;;;;;13.95;11.93;;;;;;;28.88;86.91;100370.78;5033378;28;20377;-89
2022/08/31 10:40:44;;;;;;;16.02;14.30;;;;;;;28.20;88.14;100373.44;5030636;28;20041;-85
2022/08/31 10:43:17;;;;;;;18.95;13.95;;;;;;;27.70;91.96;100375.31;5020588;28;20124;-86
2022/08/31 10:45:47;;;;;;;16.75;14.23;;;;;;;27.34;94.11;100381.91;5033368;28;20483;-85
2022/08/31 10:48:16;;;;;;;21.40;13.32;;;;;;;27.40;94.27;100374.53;5022883;28;20034;-85
2022/08/31 10:51:22;;;;;;;16.95;13.45;;;;;;;27.59;95.22;100378.31;5028902;28;20480;-85
2022/08/31 10:54:05;;;;;;;15.35;13.57;;;;;;;27.91;94.58;100370.56;5025738;28;20399;-87
2022/08/31 10:56:57;;;;;;;15.88;12.52;;;;;;;28.30;90.82;100373.38;5026495;28;20423;-87
2022/08/31 10:59:37;;;;;;;;;;;;;;;27.94;92.28;100370.00;5033528;28;20068;-84
2022/08/31 11:02:29;;;;;;;16.20;12.95;;;;;;;27.65;93.58;100374.47;5012030;28;19918;-87
2022/08/31 11:05:09;;;;;;;17.95;13.80;;;;;;;27.51;93.50;100359.84;5035129;28;20053;-85
2022/08/31 11:07:54;;;;;;;19.02;12.10;;;;;;;28.16;89.61;100362.28;5039444;28;20045;-83
2022/08/31 11:10:31;;;;;;;12.13;9.63;;;;;;;28.57;84.36;100367.47;5043490;28;20033;-84
2022/08/31 11:13:01;;;;;;;14.77;11.05;;;;;;;28.84;84.01;100362.34;5035430;28;20033;-87
2022/08/31 11:16:07;;;;;;;12.95;10.98;;;;;;;28.29;87.18;100374.47;5026753;28;20037;-85
2022/08/31 11:18:49;;;;;;;10.40;8.23;;;;;;;28.65;85.88;100353.22;5031167;28;20048;-86
2022/08/31 11:21:30;;;;;;;12.63;10.68;;;;;;;28.44;85.75;100354.47;5014153;28;20037;-86
2022/08/31 11:24:20;;;;;;;15.60;10.73;;;;;;;29.04;83.93;100356.69;5027167;28;20048;-85
2022/08/31 11:26:52;;;;;;;14.50;12.25;;;;;;;28.76;83.88;100349.34;5028832;28;20037;-85
2022/08/31 11:29:40;;;;;;;18.35;14.20;;;;;;;28.62;85.05;100351.06;5035872;28;20021;-89
2022/08/31 11:32:14;;;;;;;14.82;13.15;;;;;;;28.92;84.50;100339.09;5038812;28;20040;-90
2022/08/31 11:35:08;;;;;;;19.50;13.02;;;;;;;29.33;81.42;100337.63;5028685;28;20022;-91
2022/08/31 11:37:59;;;;;;;14.35;12.50;;;;;;;30.29;78.48;100338.28;5013967;28;20532;-90
2022/08/31 11:40:40;;;;;;;18.25;13.70;;;;;;;29.90;79.03;100336.63;5114257;22;20056;-89
2022/08/31 11:43:33;;;;;;;18.70;13.80;;;;;;;29.34;81.99;100325.56;5008264;28;20090;-87
2022/08/31 11:46:24;;;;;;;18.83;13.10;;;;;;;29.42;80.53;100329.59;5019761;28;20057;-91